sensor_id;sensor_type;location;lat;lon;timestamp;P1;durP1;ratioP1;P2;durP2;ratioP2
39930;SDS011;26635;-35.248;149.138;2023-07-16T00:00:51;2.05;;;1.30;;
39930;SDS011;26635;-35.248;149.138;2023-07-16T00:03:22;2.72;;;1.35;;
39930;SDS011;26635;-35.248;149.138;2023-07-16T00:05:52;1.98;;;1.60;;
39930;SDS011;26635;-35.248;149.138;2023-07-16T00:08:27;2.65;;;1.40;;
39930;SDS011;26635;-35.248;149.138;2023-07-16T00:10:58;3.08;;;1.42;;
39930;SDS011;26635;-35.248;149.138;2023-07-16T00:13:29;3.35;;;1.63;;
39930;SDS011;26635;-35.248;149.138;2023-07-16T00:16:00;2.83;;;1.65;;
39930;SDS011;26635;-35.248;149.138;2023-07-16T00:18:31;3.67;;;1.80;;
39930;SDS011;26635;-35.248;149.138;2023-07-16T00:21:02;4.07;;;1.80;;
39930;SDS011;26635;-35.248;149.138;2023-07-16T00:23:33;3.85;;;1.60;;
39930;SDS011;26635;-35.248;149.138;2023-07-16T00:26:04;4.18;;;1.35;;
39930;SDS011;26635;-35.248;149.138;2023-07-16T00:28:34;3.60;;;1.45;;
39930;SDS011;26635;-35.248;149.138;2023-07-16T00:31:05;3.70;;;1.70;;
39930;SDS011;26635;-35.248;149.138;2023-07-16T00:33:37;3.15;;;1.55;;
39930;SDS011;26635;-35.248;149.138;2023-07-16T00:36:09;2.50;;;1.55;;
39930;SDS011;26635;-35.248;149.138;2023-07-16T00:38:40;3.92;;;1.40;;
39930;SDS011;26635;-35.248;149.138;2023-07-16T00:41:12;2.40;;;1.42;;
39930;SDS011;26635;-35.248;149.138;2023-07-16T00:43:47;2.58;;;1.33;;
39930;SDS011;26635;-35.248;149.138;2023-07-16T00:46:23;2.72;;;1.70;;
39930;SDS011;26635;-35.248;149.138;2023-07-16T00:48:56;4.28;;;1.70;;
39930;SDS011;26635;-35.248;149.138;2023-07-16T00:51:28;3.63;;;1.75;;
39930;SDS011;26635;-35.248;149.138;2023-07-16T00:53:59;3.30;;;1.50;;
39930;SDS011;26635;-35.248;149.138;2023-07-16T00:56:31;3.03;;;1.80;;
39930;SDS011;26635;-35.248;149.138;2023-07-16T00:59:03;6.22;;;1.60;;
39930;SDS011;26635;-35.248;149.138;2023-07-16T01:01:34;4.53;;;1.63;;
39930;SDS011;26635;-35.248;149.138;2023-07-16T01:04:05;3.42;;;1.95;;
39930;SDS011;26635;-35.248;149.138;2023-07-16T01:06:37;3.30;;;1.73;;
39930;SDS011;26635;-35.248;149.138;2023-07-16T01:09:17;4.50;;;2.30;;
39930;SDS011;26635;-35.248;149.138;2023-07-16T01:11:49;4.03;;;2.15;;
39930;SDS011;26635;-35.248;149.138;2023-07-16T01:14:22;3.58;;;1.58;;
39930;SDS011;26635;-35.248;149.138;2023-07-16T01:16:55;5.10;;;2.00;;
39930;SDS011;26635;-35.248;149.138;2023-07-16T01:19:28;2.50;;;1.60;;
39930;SDS011;26635;-35.248;149.138;2023-07-16T01:30:31;2.55;;;1.55;;
39930;SDS011;26635;-35.248;149.138;2023-07-16T01:33:04;2.40;;;1.38;;
39930;SDS011;26635;-35.248;149.138;2023-07-16T01:35:39;2.88;;;1.50;;
39930;SDS011;26635;-35.248;149.138;2023-07-16T01:38:12;3.55;;;1.42;;
39930;SDS011;26635;-35.248;149.138;2023-07-16T01:40:58;3.17;;;1.48;;
39930;SDS011;26635;-35.248;149.138;2023-07-16T01:43:30;2.65;;;1.33;;
39930;SDS011;26635;-35.248;149.138;2023-07-16T01:46:01;2.90;;;1.35;;
39930;SDS011;26635;-35.248;149.138;2023-07-16T01:48:35;2.08;;;1.30;;
39930;SDS011;26635;-35.248;149.138;2023-07-16T01:51:09;2.60;;;1.23;;
39930;SDS011;26635;-35.248;149.138;2023-07-16T01:53:44;2.25;;;1.13;;
39930;SDS011;26635;-35.248;149.138;2023-07-16T01:56:14;2.47;;;1.23;;
39930;SDS011;26635;-35.248;149.138;2023-07-16T01:58:45;2.40;;;1.25;;
39930;SDS011;26635;-35.248;149.138;2023-07-16T02:01:16;2.67;;;1.30;;
39930;SDS011;26635;-35.248;149.138;2023-07-16T02:03:47;2.67;;;1.40;;
39930;SDS011;26635;-35.248;149.138;2023-07-16T02:06:18;4.10;;;1.20;;
39930;SDS011;26635;-35.248;149.138;2023-07-16T02:08:49;1.98;;;1.30;;
39930;SDS011;26635;-35.248;149.138;2023-07-16T02:11:21;1.85;;;1.17;;
39930;SDS011;26635;-35.248;149.138;2023-07-16T02:13:52;1.33;;;0.82;;
39930;SDS011;26635;-35.248;149.138;2023-07-16T02:16:23;2.92;;;1.00;;
39930;SDS011;26635;-35.248;149.138;2023-07-16T02:18:56;3.08;;;1.20;;
39930;SDS011;26635;-35.248;149.138;2023-07-16T02:21:27;3.28;;;1.00;;
39930;SDS011;26635;-35.248;149.138;2023-07-16T02:24:01;2.88;;;1.08;;
39930;SDS011;26635;-35.248;149.138;2023-07-16T02:26:32;1.50;;;0.90;;
39930;SDS011;26635;-35.248;149.138;2023-07-16T02:29:03;1.27;;;0.77;;
39930;SDS011;26635;-35.248;149.138;2023-07-16T02:31:40;2.83;;;1.42;;
39930;SDS011;26635;-35.248;149.138;2023-07-16T02:34:15;2.58;;;1.13;;
39930;SDS011;26635;-35.248;149.138;2023-07-16T02:36:47;2.28;;;1.33;;
39930;SDS011;26635;-35.248;149.138;2023-07-16T02:39:21;1.15;;;0.70;;
39930;SDS011;26635;-35.248;149.138;2023-07-16T02:41:52;2.63;;;0.98;;
39930;SDS011;26635;-35.248;149.138;2023-07-16T02:44:26;2.83;;;1.10;;
39930;SDS011;26635;-35.248;149.138;2023-07-16T02:46:57;2.08;;;1.10;;
39930;SDS011;26635;-35.248;149.138;2023-07-16T02:49:29;2.35;;;1.23;;
39930;SDS011;26635;-35.248;149.138;2023-07-16T02:52:04;1.83;;;0.85;;
39930;SDS011;26635;-35.248;149.138;2023-07-16T02:54:36;2.30;;;1.08;;
39930;SDS011;26635;-35.248;149.138;2023-07-16T02:57:06;1.60;;;0.98;;
39930;SDS011;26635;-35.248;149.138;2023-07-16T02:59:40;1.77;;;0.90;;
39930;SDS011;26635;-35.248;149.138;2023-07-16T03:02:11;2.35;;;0.70;;
39930;SDS011;26635;-35.248;149.138;2023-07-16T03:04:42;3.83;;;1.13;;
39930;SDS011;26635;-35.248;149.138;2023-07-16T03:07:14;1.45;;;0.60;;
39930;SDS011;26635;-35.248;149.138;2023-07-16T03:09:46;2.42;;;1.10;;
39930;SDS011;26635;-35.248;149.138;2023-07-16T03:12:17;2.03;;;0.98;;
39930;SDS011;26635;-35.248;149.138;2023-07-16T03:14:49;2.55;;;1.55;;
39930;SDS011;26635;-35.248;149.138;2023-07-16T03:17:23;1.95;;;0.75;;
39930;SDS011;26635;-35.248;149.138;2023-07-16T03:19:53;2.03;;;0.98;;
39930;SDS011;26635;-35.248;149.138;2023-07-16T03:22:24;1.95;;;0.88;;
39930;SDS011;26635;-35.248;149.138;2023-07-16T03:24:56;3.22;;;0.70;;
39930;SDS011;26635;-35.248;149.138;2023-07-16T03:27:27;2.30;;;0.90;;
39930;SDS011;26635;-35.248;149.138;2023-07-16T03:29:58;2.00;;;0.60;;
39930;SDS011;26635;-35.248;149.138;2023-07-16T03:32:30;1.83;;;0.70;;
39930;SDS011;26635;-35.248;149.138;2023-07-16T03:35:18;1.85;;;1.15;;
39930;SDS011;26635;-35.248;149.138;2023-07-16T03:37:52;1.98;;;0.77;;
39930;SDS011;26635;-35.248;149.138;2023-07-16T03:40:24;2.90;;;1.00;;
39930;SDS011;26635;-35.248;149.138;2023-07-16T03:42:55;1.73;;;0.77;;
39930;SDS011;26635;-35.248;149.138;2023-07-16T03:45:26;3.75;;;1.38;;
39930;SDS011;26635;-35.248;149.138;2023-07-16T03:47:57;3.03;;;1.00;;
39930;SDS011;26635;-35.248;149.138;2023-07-16T03:50:29;2.95;;;0.75;;
39930;SDS011;26635;-35.248;149.138;2023-07-16T03:53:00;2.25;;;0.95;;
39930;SDS011;26635;-35.248;149.138;2023-07-16T03:55:32;2.85;;;0.88;;
39930;SDS011;26635;-35.248;149.138;2023-07-16T03:58:04;3.20;;;0.93;;
39930;SDS011;26635;-35.248;149.138;2023-07-16T04:00:37;1.15;;;0.68;;
39930;SDS011;26635;-35.248;149.138;2023-07-16T04:03:10;1.40;;;0.57;;
39930;SDS011;26635;-35.248;149.138;2023-07-16T04:05:42;2.20;;;1.00;;
39930;SDS011;26635;-35.248;149.138;2023-07-16T04:08:14;1.65;;;0.60;;
39930;SDS011;26635;-35.248;149.138;2023-07-16T04:10:56;4.28;;;0.75;;
39930;SDS011;26635;-35.248;149.138;2023-07-16T04:13:27;2.38;;;0.90;;
39930;SDS011;26635;-35.248;149.138;2023-07-16T04:15:59;1.73;;;0.60;;
39930;SDS011;26635;-35.248;149.138;2023-07-16T04:18:31;1.38;;;0.60;;
39930;SDS011;26635;-35.248;149.138;2023-07-16T04:21:02;1.20;;;0.40;;
39930;SDS011;26635;-35.248;149.138;2023-07-16T04:23:33;1.27;;;0.50;;
39930;SDS011;26635;-35.248;149.138;2023-07-16T04:26:06;0.95;;;0.50;;
39930;SDS011;26635;-35.248;149.138;2023-07-16T04:28:39;1.88;;;0.80;;
39930;SDS011;26635;-35.248;149.138;2023-07-16T04:31:11;2.67;;;0.65;;
39930;SDS011;26635;-35.248;149.138;2023-07-16T04:33:43;1.17;;;0.55;;
39930;SDS011;26635;-35.248;149.138;2023-07-16T04:36:13;2.83;;;0.88;;
39930;SDS011;26635;-35.248;149.138;2023-07-16T04:38:45;1.17;;;0.47;;
39930;SDS011;26635;-35.248;149.138;2023-07-16T04:41:19;1.85;;;0.30;;
39930;SDS011;26635;-35.248;149.138;2023-07-16T04:43:49;0.75;;;0.20;;
39930;SDS011;26635;-35.248;149.138;2023-07-16T04:46:20;1.17;;;0.30;;
39930;SDS011;26635;-35.248;149.138;2023-07-16T04:48:52;2.22;;;0.45;;
39930;SDS011;26635;-35.248;149.138;2023-07-16T04:51:23;1.02;;;0.40;;
39930;SDS011;26635;-35.248;149.138;2023-07-16T04:53:54;2.15;;;0.10;;
39930;SDS011;26635;-35.248;149.138;2023-07-16T04:56:25;0.80;;;0.30;;
39930;SDS011;26635;-35.248;149.138;2023-07-16T04:58:55;0.55;;;0.13;;
39930;SDS011;26635;-35.248;149.138;2023-07-16T05:01:26;3.17;;;0.25;;
39930;SDS011;26635;-35.248;149.138;2023-07-16T05:03:57;0.88;;;0.20;;
39930;SDS011;26635;-35.248;149.138;2023-07-16T05:06:29;0.93;;;0.20;;
39930;SDS011;26635;-35.248;149.138;2023-07-16T05:09:00;0.63;;;0.32;;
39930;SDS011;26635;-35.248;149.138;2023-07-16T05:11:32;1.00;;;0.60;;
39930;SDS011;26635;-35.248;149.138;2023-07-16T05:14:05;1.33;;;0.20;;
39930;SDS011;26635;-35.248;149.138;2023-07-16T05:16:35;0.63;;;0.20;;
39930;SDS011;26635;-35.248;149.138;2023-07-16T05:19:06;1.08;;;0.20;;
39930;SDS011;26635;-35.248;149.138;2023-07-16T05:21:37;0.90;;;0.20;;
39930;SDS011;26635;-35.248;149.138;2023-07-16T05:24:08;1.63;;;0.30;;
39930;SDS011;26635;-35.248;149.138;2023-07-16T05:26:41;0.57;;;0.10;;
39930;SDS011;26635;-35.248;149.138;2023-07-16T05:29:13;0.50;;;0.20;;
39930;SDS011;26635;-35.248;149.138;2023-07-16T05:31:44;0.85;;;0.20;;
39930;SDS011;26635;-35.248;149.138;2023-07-16T05:34:15;1.15;;;0.30;;
39930;SDS011;26635;-35.248;149.138;2023-07-16T05:36:46;0.68;;;0.10;;
39930;SDS011;26635;-35.248;149.138;2023-07-16T05:39:17;0.77;;;0.40;;
39930;SDS011;26635;-35.248;149.138;2023-07-16T05:41:48;1.02;;;0.28;;
39930;SDS011;26635;-35.248;149.138;2023-07-16T05:44:19;0.98;;;0.20;;
39930;SDS011;26635;-35.248;149.138;2023-07-16T05:46:50;0.70;;;0.10;;
39930;SDS011;26635;-35.248;149.138;2023-07-16T05:49:24;0.57;;;0.20;;
39930;SDS011;26635;-35.248;149.138;2023-07-16T05:51:55;1.25;;;0.38;;
39930;SDS011;26635;-35.248;149.138;2023-07-16T05:54:26;1.80;;;0.50;;
39930;SDS011;26635;-35.248;149.138;2023-07-16T05:56:57;0.57;;;0.30;;
39930;SDS011;26635;-35.248;149.138;2023-07-16T05:59:30;0.85;;;0.35;;
39930;SDS011;26635;-35.248;149.138;2023-07-16T06:02:06;3.17;;;0.60;;
39930;SDS011;26635;-35.248;149.138;2023-07-16T06:04:36;1.67;;;0.30;;
39930;SDS011;26635;-35.248;149.138;2023-07-16T06:07:08;1.15;;;0.30;;
39930;SDS011;26635;-35.248;149.138;2023-07-16T06:09:39;0.50;;;0.25;;
39930;SDS011;26635;-35.248;149.138;2023-07-16T06:12:10;0.75;;;0.32;;
39930;SDS011;26635;-35.248;149.138;2023-07-16T06:14:43;0.98;;;0.20;;
39930;SDS011;26635;-35.248;149.138;2023-07-16T06:17:15;2.13;;;0.47;;
39930;SDS011;26635;-35.248;149.138;2023-07-16T06:19:46;0.90;;;0.22;;
39930;SDS011;26635;-35.248;149.138;2023-07-16T06:22:19;3.78;;;1.20;;
39930;SDS011;26635;-35.248;149.138;2023-07-16T06:24:49;2.60;;;1.45;;
39930;SDS011;26635;-35.248;149.138;2023-07-16T06:27:21;3.70;;;0.47;;
39930;SDS011;26635;-35.248;149.138;2023-07-16T06:29:53;2.03;;;0.50;;
39930;SDS011;26635;-35.248;149.138;2023-07-16T06:32:24;3.20;;;1.23;;
39930;SDS011;26635;-35.248;149.138;2023-07-16T06:34:55;1.70;;;0.90;;
39930;SDS011;26635;-35.248;149.138;2023-07-16T06:37:26;3.50;;;1.60;;
39930;SDS011;26635;-35.248;149.138;2023-07-16T06:39:57;2.13;;;1.00;;
39930;SDS011;26635;-35.248;149.138;2023-07-16T06:42:28;2.25;;;0.60;;
39930;SDS011;26635;-35.248;149.138;2023-07-16T06:44:59;2.25;;;0.63;;
39930;SDS011;26635;-35.248;149.138;2023-07-16T06:47:31;3.40;;;1.88;;
39930;SDS011;26635;-35.248;149.138;2023-07-16T06:50:02;4.65;;;1.95;;
39930;SDS011;26635;-35.248;149.138;2023-07-16T06:52:33;2.88;;;1.70;;
39930;SDS011;26635;-35.248;149.138;2023-07-16T06:55:05;2.63;;;1.85;;
39930;SDS011;26635;-35.248;149.138;2023-07-16T06:57:36;3.85;;;2.38;;
39930;SDS011;26635;-35.248;149.138;2023-07-16T07:00:09;3.00;;;1.38;;
39930;SDS011;26635;-35.248;149.138;2023-07-16T07:02:40;1.35;;;0.60;;
39930;SDS011;26635;-35.248;149.138;2023-07-16T07:05:13;0.93;;;0.57;;
39930;SDS011;26635;-35.248;149.138;2023-07-16T07:07:45;0.65;;;0.30;;
39930;SDS011;26635;-35.248;149.138;2023-07-16T07:10:16;0.63;;;0.40;;
39930;SDS011;26635;-35.248;149.138;2023-07-16T07:12:46;2.78;;;0.60;;
39930;SDS011;26635;-35.248;149.138;2023-07-16T07:15:18;1.92;;;0.43;;
39930;SDS011;26635;-35.248;149.138;2023-07-16T07:17:50;3.13;;;0.50;;
39930;SDS011;26635;-35.248;149.138;2023-07-16T07:20:21;1.35;;;0.40;;
39930;SDS011;26635;-35.248;149.138;2023-07-16T07:22:51;0.20;;;0.20;;
39930;SDS011;26635;-35.248;149.138;2023-07-16T07:25:22;1.17;;;0.30;;
39930;SDS011;26635;-35.248;149.138;2023-07-16T07:27:53;0.82;;;0.30;;
39930;SDS011;26635;-35.248;149.138;2023-07-16T07:30:25;2.85;;;0.80;;
39930;SDS011;26635;-35.248;149.138;2023-07-16T07:32:59;5.60;;;0.93;;
39930;SDS011;26635;-35.248;149.138;2023-07-16T07:35:38;2.00;;;1.08;;
39930;SDS011;26635;-35.248;149.138;2023-07-16T07:38:09;5.45;;;1.52;;
39930;SDS011;26635;-35.248;149.138;2023-07-16T07:40:42;3.53;;;1.60;;
39930;SDS011;26635;-35.248;149.138;2023-07-16T07:43:13;2.25;;;1.20;;
39930;SDS011;26635;-35.248;149.138;2023-07-16T07:45:44;3.45;;;1.10;;
39930;SDS011;26635;-35.248;149.138;2023-07-16T07:48:15;3.65;;;1.50;;
39930;SDS011;26635;-35.248;149.138;2023-07-16T07:50:46;4.63;;;1.40;;
39930;SDS011;26635;-35.248;149.138;2023-07-16T07:53:19;4.28;;;1.50;;
39930;SDS011;26635;-35.248;149.138;2023-07-16T07:55:50;5.00;;;1.67;;
39930;SDS011;26635;-35.248;149.138;2023-07-16T07:58:21;7.13;;;2.55;;
39930;SDS011;26635;-35.248;149.138;2023-07-16T08:00:52;4.40;;;1.90;;
39930;SDS011;26635;-35.248;149.138;2023-07-16T08:03:36;4.93;;;1.95;;
39930;SDS011;26635;-35.248;149.138;2023-07-16T08:06:12;5.38;;;1.85;;
39930;SDS011;26635;-35.248;149.138;2023-07-16T08:08:55;5.43;;;2.47;;
39930;SDS011;26635;-35.248;149.138;2023-07-16T08:11:32;5.93;;;2.78;;
39930;SDS011;26635;-35.248;149.138;2023-07-16T08:14:02;5.93;;;3.15;;
39930;SDS011;26635;-35.248;149.138;2023-07-16T08:16:37;7.10;;;2.92;;
39930;SDS011;26635;-35.248;149.138;2023-07-16T08:19:08;7.05;;;2.75;;
39930;SDS011;26635;-35.248;149.138;2023-07-16T08:21:39;5.03;;;2.70;;
39930;SDS011;26635;-35.248;149.138;2023-07-16T08:24:10;6.40;;;3.50;;
39930;SDS011;26635;-35.248;149.138;2023-07-16T08:26:40;6.78;;;3.25;;
39930;SDS011;26635;-35.248;149.138;2023-07-16T08:29:11;11.23;;;5.68;;
39930;SDS011;26635;-35.248;149.138;2023-07-16T08:31:41;13.18;;;7.18;;
39930;SDS011;26635;-35.248;149.138;2023-07-16T08:34:12;14.88;;;8.68;;
39930;SDS011;26635;-35.248;149.138;2023-07-16T08:36:43;22.90;;;11.20;;
39930;SDS011;26635;-35.248;149.138;2023-07-16T08:39:13;17.23;;;8.90;;
39930;SDS011;26635;-35.248;149.138;2023-07-16T08:44:20;6.80;;;4.03;;
39930;SDS011;26635;-35.248;149.138;2023-07-16T08:46:51;12.45;;;4.80;;
39930;SDS011;26635;-35.248;149.138;2023-07-16T08:49:22;8.80;;;3.53;;
39930;SDS011;26635;-35.248;149.138;2023-07-16T08:51:54;5.20;;;3.08;;
39930;SDS011;26635;-35.248;149.138;2023-07-16T08:54:26;5.57;;;3.90;;
39930;SDS011;26635;-35.248;149.138;2023-07-16T08:56:57;9.80;;;3.90;;
39930;SDS011;26635;-35.248;149.138;2023-07-16T08:59:28;7.22;;;3.45;;
39930;SDS011;26635;-35.248;149.138;2023-07-16T09:02:01;7.75;;;3.58;;
39930;SDS011;26635;-35.248;149.138;2023-07-16T09:04:32;10.63;;;3.58;;
39930;SDS011;26635;-35.248;149.138;2023-07-16T09:07:03;5.50;;;2.50;;
39930;SDS011;26635;-35.248;149.138;2023-07-16T09:09:35;5.45;;;1.98;;
39930;SDS011;26635;-35.248;149.138;2023-07-16T09:12:06;2.30;;;1.38;;
39930;SDS011;26635;-35.248;149.138;2023-07-16T09:14:41;3.22;;;1.35;;
39930;SDS011;26635;-35.248;149.138;2023-07-16T09:17:12;3.17;;;1.20;;
39930;SDS011;26635;-35.248;149.138;2023-07-16T09:19:48;3.20;;;0.95;;
39930;SDS011;26635;-35.248;149.138;2023-07-16T09:22:20;3.33;;;0.90;;
39930;SDS011;26635;-35.248;149.138;2023-07-16T09:24:51;2.88;;;1.23;;
39930;SDS011;26635;-35.248;149.138;2023-07-16T09:27:31;1.80;;;0.90;;
39930;SDS011;26635;-35.248;149.138;2023-07-16T09:30:03;2.22;;;1.00;;
39930;SDS011;26635;-35.248;149.138;2023-07-16T09:32:35;1.75;;;0.70;;
39930;SDS011;26635;-35.248;149.138;2023-07-16T09:35:11;2.00;;;0.90;;
39930;SDS011;26635;-35.248;149.138;2023-07-16T09:37:46;9.52;;;1.58;;
39930;SDS011;26635;-35.248;149.138;2023-07-16T09:40:17;1.40;;;0.60;;
39930;SDS011;26635;-35.248;149.138;2023-07-16T09:42:47;2.58;;;1.00;;
39930;SDS011;26635;-35.248;149.138;2023-07-16T09:45:23;3.55;;;1.10;;
39930;SDS011;26635;-35.248;149.138;2023-07-16T09:48:01;2.92;;;1.20;;
39930;SDS011;26635;-35.248;149.138;2023-07-16T09:50:33;2.65;;;0.93;;
39930;SDS011;26635;-35.248;149.138;2023-07-16T09:53:07;1.77;;;1.15;;
39930;SDS011;26635;-35.248;149.138;2023-07-16T09:55:43;2.05;;;1.30;;
39930;SDS011;26635;-35.248;149.138;2023-07-16T09:58:16;2.25;;;1.20;;
39930;SDS011;26635;-35.248;149.138;2023-07-16T10:00:54;4.68;;;0.93;;
39930;SDS011;26635;-35.248;149.138;2023-07-16T10:03:56;4.85;;;1.65;;
39930;SDS011;26635;-35.248;149.138;2023-07-16T10:06:53;2.92;;;1.35;;
39930;SDS011;26635;-35.248;149.138;2023-07-16T10:09:40;2.45;;;1.17;;
39930;SDS011;26635;-35.248;149.138;2023-07-16T10:12:54;3.55;;;1.30;;
39930;SDS011;26635;-35.248;149.138;2023-07-16T10:15:30;3.15;;;1.48;;
39930;SDS011;26635;-35.248;149.138;2023-07-16T10:18:00;2.92;;;1.77;;
39930;SDS011;26635;-35.248;149.138;2023-07-16T10:20:40;4.18;;;2.78;;
39930;SDS011;26635;-35.248;149.138;2023-07-16T10:23:24;7.10;;;3.15;;
39930;SDS011;26635;-35.248;149.138;2023-07-16T10:26:20;10.15;;;4.57;;
39930;SDS011;26635;-35.248;149.138;2023-07-16T10:30:13;18.85;;;9.15;;
39930;SDS011;26635;-35.248;149.138;2023-07-16T10:33:11;22.38;;;9.73;;
39930;SDS011;26635;-35.248;149.138;2023-07-16T10:36:03;24.58;;;11.90;;
39930;SDS011;26635;-35.248;149.138;2023-07-16T10:39:01;26.08;;;12.35;;
39930;SDS011;26635;-35.248;149.138;2023-07-16T10:41:33;23.77;;;11.18;;
39930;SDS011;26635;-35.248;149.138;2023-07-16T10:44:11;24.58;;;12.50;;
39930;SDS011;26635;-35.248;149.138;2023-07-16T10:46:45;14.80;;;7.88;;
39930;SDS011;26635;-35.248;149.138;2023-07-16T10:49:27;12.45;;;5.90;;
39930;SDS011;26635;-35.248;149.138;2023-07-16T10:52:01;16.25;;;6.53;;
39930;SDS011;26635;-35.248;149.138;2023-07-16T10:54:37;14.38;;;7.22;;
39930;SDS011;26635;-35.248;149.138;2023-07-16T10:57:23;11.80;;;6.63;;
39930;SDS011;26635;-35.248;149.138;2023-07-16T11:00:46;13.80;;;6.38;;
39930;SDS011;26635;-35.248;149.138;2023-07-16T11:03:51;12.23;;;6.40;;
39930;SDS011;26635;-35.248;149.138;2023-07-16T11:06:22;17.50;;;8.38;;
39930;SDS011;26635;-35.248;149.138;2023-07-16T11:08:53;12.73;;;7.00;;
39930;SDS011;26635;-35.248;149.138;2023-07-16T11:11:48;12.70;;;5.95;;
39930;SDS011;26635;-35.248;149.138;2023-07-16T11:14:18;11.80;;;6.28;;
39930;SDS011;26635;-35.248;149.138;2023-07-16T11:17:09;12.60;;;7.10;;
39930;SDS011;26635;-35.248;149.138;2023-07-16T11:20:08;12.70;;;6.97;;
39930;SDS011;26635;-35.248;149.138;2023-07-16T11:22:39;11.02;;;6.75;;
39930;SDS011;26635;-35.248;149.138;2023-07-16T11:25:12;12.63;;;6.57;;
39930;SDS011;26635;-35.248;149.138;2023-07-16T11:27:43;12.02;;;8.75;;
39930;SDS011;26635;-35.248;149.138;2023-07-16T11:30:14;12.68;;;6.95;;
39930;SDS011;26635;-35.248;149.138;2023-07-16T11:32:46;12.07;;;6.97;;
39930;SDS011;26635;-35.248;149.138;2023-07-16T11:35:18;11.18;;;6.68;;
39930;SDS011;26635;-35.248;149.138;2023-07-16T11:37:51;12.77;;;7.28;;
39930;SDS011;26635;-35.248;149.138;2023-07-16T11:40:24;16.38;;;6.85;;
39930;SDS011;26635;-35.248;149.138;2023-07-16T11:42:55;12.65;;;7.78;;
39930;SDS011;26635;-35.248;149.138;2023-07-16T11:45:27;13.90;;;7.47;;
39930;SDS011;26635;-35.248;149.138;2023-07-16T11:48:00;14.85;;;8.07;;
39930;SDS011;26635;-35.248;149.138;2023-07-16T11:50:32;13.82;;;7.60;;
39930;SDS011;26635;-35.248;149.138;2023-07-16T11:53:03;16.00;;;8.27;;
39930;SDS011;26635;-35.248;149.138;2023-07-16T11:55:37;12.25;;;7.82;;
39930;SDS011;26635;-35.248;149.138;2023-07-16T11:58:07;18.88;;;10.70;;
39930;SDS011;26635;-35.248;149.138;2023-07-16T12:00:38;15.63;;;9.55;;
39930;SDS011;26635;-35.248;149.138;2023-07-16T12:03:09;20.92;;;12.00;;
39930;SDS011;26635;-35.248;149.138;2023-07-16T12:05:40;17.95;;;11.85;;
39930;SDS011;26635;-35.248;149.138;2023-07-16T12:08:29;20.00;;;11.32;;
39930;SDS011;26635;-35.248;149.138;2023-07-16T12:11:00;19.30;;;10.55;;
39930;SDS011;26635;-35.248;149.138;2023-07-16T12:13:30;20.20;;;10.82;;
39930;SDS011;26635;-35.248;149.138;2023-07-16T12:16:02;14.35;;;10.20;;
39930;SDS011;26635;-35.248;149.138;2023-07-16T12:18:43;17.10;;;9.88;;
39930;SDS011;26635;-35.248;149.138;2023-07-16T12:21:14;18.05;;;9.98;;
39930;SDS011;26635;-35.248;149.138;2023-07-16T12:23:44;21.02;;;10.52;;
39930;SDS011;26635;-35.248;149.138;2023-07-16T12:26:16;19.20;;;10.68;;
39930;SDS011;26635;-35.248;149.138;2023-07-16T12:28:49;17.67;;;11.18;;
39930;SDS011;26635;-35.248;149.138;2023-07-16T12:31:23;19.30;;;10.32;;
39930;SDS011;26635;-35.248;149.138;2023-07-16T12:33:53;17.70;;;10.32;;
39930;SDS011;26635;-35.248;149.138;2023-07-16T12:36:55;20.35;;;11.82;;
39930;SDS011;26635;-35.248;149.138;2023-07-16T12:40:13;19.05;;;11.52;;
39930;SDS011;26635;-35.248;149.138;2023-07-16T12:43:10;21.98;;;13.23;;
39930;SDS011;26635;-35.248;149.138;2023-07-16T12:45:42;25.33;;;13.75;;
39930;SDS011;26635;-35.248;149.138;2023-07-16T12:48:13;23.63;;;12.93;;
39930;SDS011;26635;-35.248;149.138;2023-07-16T12:50:43;29.38;;;13.95;;
39930;SDS011;26635;-35.248;149.138;2023-07-16T12:53:19;24.48;;;14.25;;
39930;SDS011;26635;-35.248;149.138;2023-07-16T12:55:50;22.52;;;14.73;;
39930;SDS011;26635;-35.248;149.138;2023-07-16T12:58:21;26.40;;;15.55;;
39930;SDS011;26635;-35.248;149.138;2023-07-16T13:00:52;28.58;;;17.58;;
39930;SDS011;26635;-35.248;149.138;2023-07-16T13:03:22;30.67;;;16.83;;
39930;SDS011;26635;-35.248;149.138;2023-07-16T13:05:53;30.10;;;17.25;;
39930;SDS011;26635;-35.248;149.138;2023-07-16T13:08:37;33.13;;;18.65;;
39930;SDS011;26635;-35.248;149.138;2023-07-16T13:11:19;31.45;;;16.88;;
39930;SDS011;26635;-35.248;149.138;2023-07-16T13:13:51;30.65;;;17.85;;
39930;SDS011;26635;-35.248;149.138;2023-07-16T13:16:26;27.17;;;16.65;;
39930;SDS011;26635;-35.248;149.138;2023-07-16T13:19:07;29.80;;;17.00;;
39930;SDS011;26635;-35.248;149.138;2023-07-16T13:21:38;29.25;;;17.15;;
39930;SDS011;26635;-35.248;149.138;2023-07-16T13:24:09;30.47;;;16.70;;
39930;SDS011;26635;-35.248;149.138;2023-07-16T13:31:51;26.50;;;14.27;;
39930;SDS011;26635;-35.248;149.138;2023-07-16T13:57:12;21.27;;;13.80;;
39930;SDS011;26635;-35.248;149.138;2023-07-16T14:26:23;33.70;;;17.47;;
39930;SDS011;26635;-35.248;149.138;2023-07-16T23:23:42;4.30;;;2.20;;
39930;SDS011;26635;-35.248;149.138;2023-07-16T23:26:13;4.97;;;2.70;;
39930;SDS011;26635;-35.248;149.138;2023-07-16T23:28:44;5.20;;;2.70;;
39930;SDS011;26635;-35.248;149.138;2023-07-16T23:31:16;3.93;;;2.37;;
39930;SDS011;26635;-35.248;149.138;2023-07-16T23:33:47;7.53;;;2.77;;
39930;SDS011;26635;-35.248;149.138;2023-07-16T23:36:18;3.83;;;2.55;;
39930;SDS011;26635;-35.248;149.138;2023-07-16T23:39:13;3.42;;;2.42;;
39930;SDS011;26635;-35.248;149.138;2023-07-16T23:43:09;4.68;;;2.22;;
39930;SDS011;26635;-35.248;149.138;2023-07-16T23:45:50;9.27;;;3.28;;
39930;SDS011;26635;-35.248;149.138;2023-07-16T23:48:21;6.07;;;2.75;;
39930;SDS011;26635;-35.248;149.138;2023-07-16T23:51:12;5.63;;;3.28;;
39930;SDS011;26635;-35.248;149.138;2023-07-16T23:53:44;6.95;;;3.60;;
39930;SDS011;26635;-35.248;149.138;2023-07-16T23:56:15;5.72;;;3.08;;
39930;SDS011;26635;-35.248;149.138;2023-07-16T23:58:47;4.85;;;2.97;;
